To NAV CANADA Home Page Login to a new session Search on AWWS site Disclaimer Vers la page française équivalente Tips FAQ What's new on the site To the Forecasts and Observations / NOTAM section To "File a Flight Plan" website Publications and other links Update of the User's profile FIC Telephone Numbers My Weather Data Folder Route Weather Data Regional Weather Data Local Weather Data To the Forecasts and Observations / NOTAM section
Request Generated 11/13/2018 at 18:35:41 UTC . Weather information available at that time is displayed.

METAR/TAF

TESLIN/YT    

METAR CYZW 131800Z 05005KT 30SM FEW060 BKN085 OVC130 M03/M05 A2952 RMK SC1AC4AC3 SLP033=
METAR CYZW 131700Z CCB 07004KT 30SM FEW060 BKN090 OVC160 M03/M05 A2956 RMK SC1AC4AC3 CLIMAT 4.5/-1.7/0.0/44013 PRESFR SLP047=
METAR CYZW 131700Z CCA 07004KT 30SM FEW060 BKN090 OVC160 M03/M05 A2956 RMK SC1AC4AC3 CLIMAT 4.5/-1 PRESFR SLP047=
METAR CYZW 131700Z 07004KT 30SM FEW060 BKN090 OVC160 M03/M05 A2956 RMK SC1AC4AC3 //LIMAT 4.5/-1 PRESFR SLP047=
LWIS CYZW 131600Z AUTO 07002KT M03/M07 A2960=

*** REMARK        : Forecast period has ended; this was the last TAF issued
*** REMARQUE : La période de prévision est échue; ceci était le dernier TAF qui a été émis
TAF CYZW 121838Z 1219/1301 09005KT P6SM SCT070 OVC120 TEMPO 1219/1222
BKN070
BECMG 1222/1224 13005KT
RMK NXT FCST WILL BE ISSUED AT 131845Z=
Your time UTC time
Weather data provided by Environment Canada and NAV CANADA